sensor_id;sensor_type;location;lat;lon;timestamp;temperature;humidity
34815;DHT22;21030;53.912;15.214;2022-12-18T00:01:21;14.80;27.40
34815;DHT22;21030;53.912;15.214;2022-12-18T00:03:49;15.70;26.60
34815;DHT22;21030;53.912;15.214;2022-12-18T00:06:18;16.20;26.00
34815;DHT22;21030;53.912;15.214;2022-12-18T00:08:45;16.60;25.70
34815;DHT22;21030;53.912;15.214;2022-12-18T00:11:16;15.20;26.00
34815;DHT22;21030;53.912;15.214;2022-12-18T00:13:43;14.10;27.50
34815;DHT22;21030;53.912;15.214;2022-12-18T00:16:13;13.50;28.50
34815;DHT22;21030;53.912;15.214;2022-12-18T00:18:41;13.90;28.50
34815;DHT22;21030;53.912;15.214;2022-12-18T00:21:10;14.00;28.00
34815;DHT22;21030;53.912;15.214;2022-12-18T00:23:38;14.60;28.50
34815;DHT22;21030;53.912;15.214;2022-12-18T00:26:10;15.50;27.00
34815;DHT22;21030;53.912;15.214;2022-12-18T00:28:37;16.40;26.00
34815;DHT22;21030;53.912;15.214;2022-12-18T00:31:16;16.90;25.10
34815;DHT22;21030;53.912;15.214;2022-12-18T00:33:43;16.70;25.00
34815;DHT22;21030;53.912;15.214;2022-12-18T00:36:13;16.60;25.30
34815;DHT22;21030;53.912;15.214;2022-12-18T00:38:41;15.40;26.00
34815;DHT22;21030;53.912;15.214;2022-12-18T00:41:10;15.20;26.60
34815;DHT22;21030;53.912;15.214;2022-12-18T00:43:38;15.60;26.80
34815;DHT22;21030;53.912;15.214;2022-12-18T00:46:06;15.20;26.70
34815;DHT22;21030;53.912;15.214;2022-12-18T00:48:33;15.40;26.60
34815;DHT22;21030;53.912;15.214;2022-12-18T00:51:00;15.60;26.40
34815;DHT22;21030;53.912;15.214;2022-12-18T00:53:27;15.00;26.80
34815;DHT22;21030;53.912;15.214;2022-12-18T00:55:54;15.50;26.50
34815;DHT22;21030;53.912;15.214;2022-12-18T00:58:21;16.20;26.00
34815;DHT22;21030;53.912;15.214;2022-12-18T01:00:48;15.80;25.80
34815;DHT22;21030;53.912;15.214;2022-12-18T01:03:15;15.80;26.20
34815;DHT22;21030;53.912;15.214;2022-12-18T01:05:42;16.80;25.50
34815;DHT22;21030;53.912;15.214;2022-12-18T01:08:09;18.20;24.20
34815;DHT22;21030;53.912;15.214;2022-12-18T01:10:40;19.70;22.70
34815;DHT22;21030;53.912;15.214;2022-12-18T01:13:08;20.50;21.70
34815;DHT22;21030;53.912;15.214;2022-12-18T01:15:35;20.90;20.90
34815;DHT22;21030;53.912;15.214;2022-12-18T01:18:02;18.80;22.20
34815;DHT22;21030;53.912;15.214;2022-12-18T01:20:29;16.90;24.20
34815;DHT22;21030;53.912;15.214;2022-12-18T01:22:56;17.30;24.60
34815;DHT22;21030;53.912;15.214;2022-12-18T01:25:23;18.50;23.80
34815;DHT22;21030;53.912;15.214;2022-12-18T01:27:50;18.30;23.40
34815;DHT22;21030;53.912;15.214;2022-12-18T01:30:17;18.20;23.60
34815;DHT22;21030;53.912;15.214;2022-12-18T01:32:44;17.90;23.60
34815;DHT22;21030;53.912;15.214;2022-12-18T01:35:11;17.90;23.90
34815;DHT22;21030;53.912;15.214;2022-12-18T01:37:38;17.70;23.90
34815;DHT22;21030;53.912;15.214;2022-12-18T01:40:05;17.90;23.70
34815;DHT22;21030;53.912;15.214;2022-12-18T01:42:32;18.90;23.20
34815;DHT22;21030;53.912;15.214;2022-12-18T01:48:03;20.00;21.90
34815;DHT22;21030;53.912;15.214;2022-12-18T01:50:41;19.90;21.60
34815;DHT22;21030;53.912;15.214;2022-12-18T01:53:23;19.20;22.00
34815;DHT22;21030;53.912;15.214;2022-12-18T01:55:55;19.10;22.60
34815;DHT22;21030;53.912;15.214;2022-12-18T02:00:59;19.50;22.20
34815;DHT22;21030;53.912;15.214;2022-12-18T02:03:26;20.50;21.40
34815;DHT22;21030;53.912;15.214;2022-12-18T02:08:46;21.30;20.60
34815;DHT22;21030;53.912;15.214;2022-12-18T02:11:37;21.20;20.50
34815;DHT22;21030;53.912;15.214;2022-12-18T02:14:11;21.00;20.60
34815;DHT22;21030;53.912;15.214;2022-12-18T02:17:03;20.60;20.60
34815;DHT22;21030;53.912;15.214;2022-12-18T02:25:58;19.40;21.60
34815;DHT22;21030;53.912;15.214;2022-12-18T02:28:32;20.30;21.50
34815;DHT22;21030;53.912;15.214;2022-12-18T02:31:03;20.40;21.30
34815;DHT22;21030;53.912;15.214;2022-12-18T02:33:32;19.50;22.00
34815;DHT22;21030;53.912;15.214;2022-12-18T02:36:01;20.30;21.70
34815;DHT22;21030;53.912;15.214;2022-12-18T02:38:30;20.50;21.30
34815;DHT22;21030;53.912;15.214;2022-12-18T02:40:58;19.90;21.70
34815;DHT22;21030;53.912;15.214;2022-12-18T02:43:26;20.10;21.70
34815;DHT22;21030;53.912;15.214;2022-12-18T02:45:58;20.30;21.40
34815;DHT22;21030;53.912;15.214;2022-12-18T02:48:31;20.10;21.40
34815;DHT22;21030;53.912;15.214;2022-12-18T02:51:18;19.60;21.90
34815;DHT22;21030;53.912;15.214;2022-12-18T02:54:02;19.30;22.20
34815;DHT22;21030;53.912;15.214;2022-12-18T02:56:39;18.50;23.00
34815;DHT22;21030;53.912;15.214;2022-12-18T02:59:23;19.00;22.80
34815;DHT22;21030;53.912;15.214;2022-12-18T03:02:01;19.00;22.70
34815;DHT22;21030;53.912;15.214;2022-12-18T03:04:38;18.30;23.70
34815;DHT22;21030;53.912;15.214;2022-12-18T03:07:11;18.10;23.60
34815;DHT22;21030;53.912;15.214;2022-12-18T03:09:43;17.40;24.40
34815;DHT22;21030;53.912;15.214;2022-12-18T03:12:21;17.50;24.60
34815;DHT22;21030;53.912;15.214;2022-12-18T03:15:12;16.60;25.10
34815;DHT22;21030;53.912;15.214;2022-12-18T03:17:48;17.60;24.60
34815;DHT22;21030;53.912;15.214;2022-12-18T03:20:19;17.90;24.20
34815;DHT22;21030;53.912;15.214;2022-12-18T03:22:52;17.90;24.20
34815;DHT22;21030;53.912;15.214;2022-12-18T03:25:20;17.80;24.20
34815;DHT22;21030;53.912;15.214;2022-12-18T03:27:51;18.30;24.00
34815;DHT22;21030;53.912;15.214;2022-12-18T03:30:20;18.40;23.80
34815;DHT22;21030;53.912;15.214;2022-12-18T03:35:30;19.80;22.90
34815;DHT22;21030;53.912;15.214;2022-12-18T03:37:59;20.30;22.10
34815;DHT22;21030;53.912;15.214;2022-12-18T03:43:42;21.00;21.00
34815;DHT22;21030;53.912;15.214;2022-12-18T03:46:30;19.60;22.20
34815;DHT22;21030;53.912;15.214;2022-12-18T03:49:08;18.90;22.60
34815;DHT22;21030;53.912;15.214;2022-12-18T03:51:45;17.70;23.90
34815;DHT22;21030;53.912;15.214;2022-12-18T03:54:17;17.20;24.80
34815;DHT22;21030;53.912;15.214;2022-12-18T03:56:48;17.70;24.50
34815;DHT22;21030;53.912;15.214;2022-12-18T03:59:18;18.00;24.30
34815;DHT22;21030;53.912;15.214;2022-12-18T04:01:47;18.50;23.70
34815;DHT22;21030;53.912;15.214;2022-12-18T04:04:18;19.40;23.10
34815;DHT22;21030;53.912;15.214;2022-12-18T04:06:47;19.20;22.60
34815;DHT22;21030;53.912;15.214;2022-12-18T04:09:14;18.60;23.00
34815;DHT22;21030;53.912;15.214;2022-12-18T04:11:42;19.20;23.10
34815;DHT22;21030;53.912;15.214;2022-12-18T04:14:11;20.10;22.30
34815;DHT22;21030;53.912;15.214;2022-12-18T04:16:43;19.40;22.20
34815;DHT22;21030;53.912;15.214;2022-12-18T04:19:10;18.40;23.00
34815;DHT22;21030;53.912;15.214;2022-12-18T04:21:37;15.70;25.20
34815;DHT22;21030;53.912;15.214;2022-12-18T04:24:04;14.70;27.10
34815;DHT22;21030;53.912;15.214;2022-12-18T04:26:31;15.40;27.00
34815;DHT22;21030;53.912;15.214;2022-12-18T04:28:58;15.10;26.70
34815;DHT22;21030;53.912;15.214;2022-12-18T04:31:25;14.10;27.50
34815;DHT22;21030;53.912;15.214;2022-12-18T04:33:52;13.80;28.10
34815;DHT22;21030;53.912;15.214;2022-12-18T04:36:19;13.70;28.50
34815;DHT22;21030;53.912;15.214;2022-12-18T04:38:46;14.70;28.10
34815;DHT22;21030;53.912;15.214;2022-12-18T04:41:13;15.90;26.60
34815;DHT22;21030;53.912;15.214;2022-12-18T04:43:40;16.60;25.30
34815;DHT22;21030;53.912;15.214;2022-12-18T04:46:08;16.10;25.60
34815;DHT22;21030;53.912;15.214;2022-12-18T04:48:35;16.00;25.50
34815;DHT22;21030;53.912;15.214;2022-12-18T04:51:04;16.30;25.90
34815;DHT22;21030;53.912;15.214;2022-12-18T04:53:31;16.90;25.20
34815;DHT22;21030;53.912;15.214;2022-12-18T04:56:12;17.30;24.80
34815;DHT22;21030;53.912;15.214;2022-12-18T04:58:41;17.90;24.00
34815;DHT22;21030;53.912;15.214;2022-12-18T05:01:10;17.40;24.20
34815;DHT22;21030;53.912;15.214;2022-12-18T05:03:37;17.60;24.50
34815;DHT22;21030;53.912;15.214;2022-12-18T05:06:06;17.20;24.70
34815;DHT22;21030;53.912;15.214;2022-12-18T05:08:34;18.40;23.90
34815;DHT22;21030;53.912;15.214;2022-12-18T05:11:03;18.80;23.00
34815;DHT22;21030;53.912;15.214;2022-12-18T05:13:32;19.90;22.10
34815;DHT22;21030;53.912;15.214;2022-12-18T05:15:59;20.30;21.80
34815;DHT22;21030;53.912;15.214;2022-12-18T05:18:26;19.70;21.80
34815;DHT22;21030;53.912;15.214;2022-12-18T05:20:54;19.60;22.00
34815;DHT22;21030;53.912;15.214;2022-12-18T05:23:22;18.90;22.70
34815;DHT22;21030;53.912;15.214;2022-12-18T05:25:54;17.90;23.70
34815;DHT22;21030;53.912;15.214;2022-12-18T05:28:22;18.10;24.00
34815;DHT22;21030;53.912;15.214;2022-12-18T05:30:50;19.00;23.30
34815;DHT22;21030;53.912;15.214;2022-12-18T05:33:19;19.80;22.60
34815;DHT22;21030;53.912;15.214;2022-12-18T05:35:54;17.90;23.40
34815;DHT22;21030;53.912;15.214;2022-12-18T05:38:22;16.60;24.90
34815;DHT22;21030;53.912;15.214;2022-12-18T05:40:50;16.40;25.80
34815;DHT22;21030;53.912;15.214;2022-12-18T05:43:18;16.30;26.20
34815;DHT22;21030;53.912;15.214;2022-12-18T05:45:48;18.30;24.80
34815;DHT22;21030;53.912;15.214;2022-12-18T05:48:16;20.30;22.50
34815;DHT22;21030;53.912;15.214;2022-12-18T05:50:44;19.30;22.70
34815;DHT22;21030;53.912;15.214;2022-12-18T05:53:16;17.80;23.50
34815;DHT22;21030;53.912;15.214;2022-12-18T05:55:45;17.50;24.70
34815;DHT22;21030;53.912;15.214;2022-12-18T05:58:13;17.30;25.00
34815;DHT22;21030;53.912;15.214;2022-12-18T06:00:45;16.40;25.70
34815;DHT22;21030;53.912;15.214;2022-12-18T06:03:13;16.50;25.80
34815;DHT22;21030;53.912;15.214;2022-12-18T06:05:43;16.90;25.30
34815;DHT22;21030;53.912;15.214;2022-12-18T06:08:11;16.60;25.80
34815;DHT22;21030;53.912;15.214;2022-12-18T06:10:39;15.60;26.30
34815;DHT22;21030;53.912;15.214;2022-12-18T06:13:07;15.40;26.80
34815;DHT22;21030;53.912;15.214;2022-12-18T06:15:36;15.10;27.20
34815;DHT22;21030;53.912;15.214;2022-12-18T06:18:04;14.90;27.30
34815;DHT22;21030;53.912;15.214;2022-12-18T06:20:31;14.80;27.50
34815;DHT22;21030;53.912;15.214;2022-12-18T06:23:00;14.80;27.70
34815;DHT22;21030;53.912;15.214;2022-12-18T06:25:27;15.90;27.10
34815;DHT22;21030;53.912;15.214;2022-12-18T06:27:54;17.10;25.80
34815;DHT22;21030;53.912;15.214;2022-12-18T06:30:21;18.10;24.60
34815;DHT22;21030;53.912;15.214;2022-12-18T06:32:49;18.60;23.40
34815;DHT22;21030;53.912;15.214;2022-12-18T06:35:22;17.90;24.10
34815;DHT22;21030;53.912;15.214;2022-12-18T06:37:49;19.50;23.00
34815;DHT22;21030;53.912;15.214;2022-12-18T06:40:17;19.70;22.50
34815;DHT22;21030;53.912;15.214;2022-12-18T06:42:43;19.40;22.80
34815;DHT22;21030;53.912;15.214;2022-12-18T06:45:10;19.90;22.10
34815;DHT22;21030;53.912;15.214;2022-12-18T06:47:38;20.00;22.10
34815;DHT22;21030;53.912;15.214;2022-12-18T06:50:05;20.80;21.60
34815;DHT22;21030;53.912;15.214;2022-12-18T06:52:33;21.00;21.40
34815;DHT22;21030;53.912;15.214;2022-12-18T06:55:00;20.60;21.10
34815;DHT22;21030;53.912;15.214;2022-12-18T06:57:27;21.10;20.90
34815;DHT22;21030;53.912;15.214;2022-12-18T06:59:54;21.10;20.70
34815;DHT22;21030;53.912;15.214;2022-12-18T07:02:21;21.10;21.10
34815;DHT22;21030;53.912;15.214;2022-12-18T07:04:48;20.60;21.80
34815;DHT22;21030;53.912;15.214;2022-12-18T07:07:15;21.30;21.20
34815;DHT22;21030;53.912;15.214;2022-12-18T07:09:42;21.70;20.80
34815;DHT22;21030;53.912;15.214;2022-12-18T07:12:09;20.70;20.70
34815;DHT22;21030;53.912;15.214;2022-12-18T07:14:36;20.80;21.20
34815;DHT22;21030;53.912;15.214;2022-12-18T07:17:03;20.60;21.10
34815;DHT22;21030;53.912;15.214;2022-12-18T07:19:32;19.80;21.70
34815;DHT22;21030;53.912;15.214;2022-12-18T07:21:59;19.00;22.20
34815;DHT22;21030;53.912;15.214;2022-12-18T07:24:26;19.30;22.70
34815;DHT22;21030;53.912;15.214;2022-12-18T07:26:53;19.40;22.60
34815;DHT22;21030;53.912;15.214;2022-12-18T07:29:20;19.60;22.30
34815;DHT22;21030;53.912;15.214;2022-12-18T07:31:47;19.60;22.00
34815;DHT22;21030;53.912;15.214;2022-12-18T07:34:14;18.50;22.60
34815;DHT22;21030;53.912;15.214;2022-12-18T07:36:42;19.20;22.70
34815;DHT22;21030;53.912;15.214;2022-12-18T07:39:11;19.00;22.80
34815;DHT22;21030;53.912;15.214;2022-12-18T07:41:38;18.60;23.60
34815;DHT22;21030;53.912;15.214;2022-12-18T07:44:12;18.30;23.80
34815;DHT22;21030;53.912;15.214;2022-12-18T07:46:40;18.70;23.80
34815;DHT22;21030;53.912;15.214;2022-12-18T07:49:07;19.60;23.00
34815;DHT22;21030;53.912;15.214;2022-12-18T07:51:34;19.80;22.40
34815;DHT22;21030;53.912;15.214;2022-12-18T07:54:01;19.20;22.10
34815;DHT22;21030;53.912;15.214;2022-12-18T07:56:28;20.10;22.30
34815;DHT22;21030;53.912;15.214;2022-12-18T07:58:57;19.80;21.60
34815;DHT22;21030;53.912;15.214;2022-12-18T08:01:25;19.70;21.90
34815;DHT22;21030;53.912;15.214;2022-12-18T08:03:52;19.20;22.70
34815;DHT22;21030;53.912;15.214;2022-12-18T08:06:20;19.70;22.70
34815;DHT22;21030;53.912;15.214;2022-12-18T08:08:54;19.50;22.50
34815;DHT22;21030;53.912;15.214;2022-12-18T08:11:23;20.00;22.20
34815;DHT22;21030;53.912;15.214;2022-12-18T08:13:50;20.30;22.10
34815;DHT22;21030;53.912;15.214;2022-12-18T08:16:18;21.10;21.50
34815;DHT22;21030;53.912;15.214;2022-12-18T08:18:46;20.70;21.40
34815;DHT22;21030;53.912;15.214;2022-12-18T08:21:19;20.60;21.90
34815;DHT22;21030;53.912;15.214;2022-12-18T08:23:48;20.80;21.70
34815;DHT22;21030;53.912;15.214;2022-12-18T08:26:17;21.10;21.70
34815;DHT22;21030;53.912;15.214;2022-12-18T08:28:46;21.20;21.70
34815;DHT22;21030;53.912;15.214;2022-12-18T08:31:13;21.00;21.50
34815;DHT22;21030;53.912;15.214;2022-12-18T08:33:42;20.60;21.60
34815;DHT22;21030;53.912;15.214;2022-12-18T08:36:10;21.10;21.90
34815;DHT22;21030;53.912;15.214;2022-12-18T08:38:37;21.10;21.30
34815;DHT22;21030;53.912;15.214;2022-12-18T08:41:07;21.20;21.70
34815;DHT22;21030;53.912;15.214;2022-12-18T08:43:34;20.30;21.80
34815;DHT22;21030;53.912;15.214;2022-12-18T08:46:21;20.30;22.30
34815;DHT22;21030;53.912;15.214;2022-12-18T08:48:51;19.60;22.60
34815;DHT22;21030;53.912;15.214;2022-12-18T08:51:19;20.00;23.00
34815;DHT22;21030;53.912;15.214;2022-12-18T08:53:46;20.20;22.80
34815;DHT22;21030;53.912;15.214;2022-12-18T08:56:16;19.40;23.30
34815;DHT22;21030;53.912;15.214;2022-12-18T08:58:44;19.10;23.60
34815;DHT22;21030;53.912;15.214;2022-12-18T09:01:11;19.50;23.20
34815;DHT22;21030;53.912;15.214;2022-12-18T09:03:39;19.40;23.10
34815;DHT22;21030;53.912;15.214;2022-12-18T09:06:07;20.80;22.30
34815;DHT22;21030;53.912;15.214;2022-12-18T09:08:34;21.00;21.80
34815;DHT22;21030;53.912;15.214;2022-12-18T09:11:03;20.70;21.80
34815;DHT22;21030;53.912;15.214;2022-12-18T09:13:30;19.40;22.60
34815;DHT22;21030;53.912;15.214;2022-12-18T09:15:58;18.60;23.50
34815;DHT22;21030;53.912;15.214;2022-12-18T09:18:25;19.00;23.80
34815;DHT22;21030;53.912;15.214;2022-12-18T09:20:52;19.20;23.50
34815;DHT22;21030;53.912;15.214;2022-12-18T09:23:20;19.20;23.40
34815;DHT22;21030;53.912;15.214;2022-12-18T09:25:48;19.80;23.40
34815;DHT22;21030;53.912;15.214;2022-12-18T09:28:17;19.20;23.40
34815;DHT22;21030;53.912;15.214;2022-12-18T09:30:47;19.60;23.40
34815;DHT22;21030;53.912;15.214;2022-12-18T09:33:16;20.10;22.90
34815;DHT22;21030;53.912;15.214;2022-12-18T09:35:44;20.30;22.50
34815;DHT22;21030;53.912;15.214;2022-12-18T09:38:17;19.90;22.90
34815;DHT22;21030;53.912;15.214;2022-12-18T09:40:57;20.40;22.90
34815;DHT22;21030;53.912;15.214;2022-12-18T09:46:35;19.70;23.10
34815;DHT22;21030;53.912;15.214;2022-12-18T09:49:10;19.40;22.70
34815;DHT22;21030;53.912;15.214;2022-12-18T09:52:03;19.50;23.10
34815;DHT22;21030;53.912;15.214;2022-12-18T09:54:41;20.60;22.40
34815;DHT22;21030;53.912;15.214;2022-12-18T09:57:18;20.00;23.10
34815;DHT22;21030;53.912;15.214;2022-12-18T09:59:54;19.30;23.60
34815;DHT22;21030;53.912;15.214;2022-12-18T10:02:24;19.30;23.90
34815;DHT22;21030;53.912;15.214;2022-12-18T10:05:13;19.60;23.80
34815;DHT22;21030;53.912;15.214;2022-12-18T10:07:43;19.90;23.40
34815;DHT22;21030;53.912;15.214;2022-12-18T10:10:30;20.20;23.50
34815;DHT22;21030;53.912;15.214;2022-12-18T10:15:50;16.10;26.80
34815;DHT22;21030;53.912;15.214;2022-12-18T10:21:18;17.10;26.90
34815;DHT22;21030;53.912;15.214;2022-12-18T10:26:25;18.70;25.40
34815;DHT22;21030;53.912;15.214;2022-12-18T10:28:53;18.90;24.80
34815;DHT22;21030;53.912;15.214;2022-12-18T10:31:24;19.30;25.20
34815;DHT22;21030;53.912;15.214;2022-12-18T10:33:53;20.00;23.40
34815;DHT22;21030;53.912;15.214;2022-12-18T10:36:24;20.70;23.20
34815;DHT22;21030;53.912;15.214;2022-12-18T10:38:51;21.20;22.40
34815;DHT22;21030;53.912;15.214;2022-12-18T10:43:47;21.30;21.80
34815;DHT22;21030;53.912;15.214;2022-12-18T10:46:17;20.90;22.10
34815;DHT22;21030;53.912;15.214;2022-12-18T10:51:40;19.80;22.90
34815;DHT22;21030;53.912;15.214;2022-12-18T10:56:41;20.00;24.00
34815;DHT22;21030;53.912;15.214;2022-12-18T10:59:12;19.60;23.80
34815;DHT22;21030;53.912;15.214;2022-12-18T11:01:54;18.60;24.80
34815;DHT22;21030;53.912;15.214;2022-12-18T11:04:29;19.20;24.50
34815;DHT22;21030;53.912;15.214;2022-12-18T11:07:01;18.90;24.60
34815;DHT22;21030;53.912;15.214;2022-12-18T11:14:49;15.60;28.60
34815;DHT22;21030;53.912;15.214;2022-12-18T11:17:28;17.70;26.80
34815;DHT22;21030;53.912;15.214;2022-12-18T11:20:44;19.30;25.20
34815;DHT22;21030;53.912;15.214;2022-12-18T11:23:16;21.00;23.30
34815;DHT22;21030;53.912;15.214;2022-12-18T11:25:58;20.80;22.70
34815;DHT22;21030;53.912;15.214;2022-12-18T11:28:37;20.20;22.70
34815;DHT22;21030;53.912;15.214;2022-12-18T11:31:32;20.30;22.70
34815;DHT22;21030;53.912;15.214;2022-12-18T11:34:22;20.50;22.50
34815;DHT22;21030;53.912;15.214;2022-12-18T11:36:57;21.40;22.60
34815;DHT22;21030;53.912;15.214;2022-12-18T11:39:30;21.30;22.30
34815;DHT22;21030;53.912;15.214;2022-12-18T11:42:24;20.10;23.10
34815;DHT22;21030;53.912;15.214;2022-12-18T11:44:58;19.60;23.70
34815;DHT22;21030;53.912;15.214;2022-12-18T11:50:19;18.90;24.80
34815;DHT22;21030;53.912;15.214;2022-12-18T11:52:47;18.00;25.40
34815;DHT22;21030;53.912;15.214;2022-12-18T11:55:39;17.80;25.90
34815;DHT22;21030;53.912;15.214;2022-12-18T11:58:14;18.30;25.90
34815;DHT22;21030;53.912;15.214;2022-12-18T12:09:17;20.80;23.20
34815;DHT22;21030;53.912;15.214;2022-12-18T12:12:27;21.00;22.50
34815;DHT22;21030;53.912;15.214;2022-12-18T12:15:16;20.80;22.70
34815;DHT22;21030;53.912;15.214;2022-12-18T12:20:37;19.30;24.20
34815;DHT22;21030;53.912;15.214;2022-12-18T12:26:17;21.20;22.60
34815;DHT22;21030;53.912;15.214;2022-12-18T12:37:37;19.20;23.80
34815;DHT22;21030;53.912;15.214;2022-12-18T12:40:10;18.00;24.40
34815;DHT22;21030;53.912;15.214;2022-12-18T12:43:19;18.00;25.20
34815;DHT22;21030;53.912;15.214;2022-12-18T12:46:07;19.20;24.10
34815;DHT22;21030;53.912;15.214;2022-12-18T12:48:54;20.30;23.10
34815;DHT22;21030;53.912;15.214;2022-12-18T12:51:24;19.50;22.80
34815;DHT22;21030;53.912;15.214;2022-12-18T12:53:52;19.90;22.80
34815;DHT22;21030;53.912;15.214;2022-12-18T12:56:21;20.60;22.50
34815;DHT22;21030;53.912;15.214;2022-12-18T12:59:17;20.80;22.10
34815;DHT22;21030;53.912;15.214;2022-12-18T13:01:54;20.70;21.90
34815;DHT22;21030;53.912;15.214;2022-12-18T13:04:42;20.30;22.30
34815;DHT22;21030;53.912;15.214;2022-12-18T13:07:17;20.70;22.30
34815;DHT22;21030;53.912;15.214;2022-12-18T13:10:13;21.30;22.10
34815;DHT22;21030;53.912;15.214;2022-12-18T13:12:58;21.10;21.90
34815;DHT22;21030;53.912;15.214;2022-12-18T13:15:38;21.40;21.70
34815;DHT22;21030;53.912;15.214;2022-12-18T13:20:46;22.00;21.20
34815;DHT22;21030;53.912;15.214;2022-12-18T13:25:55;20.90;22.00
34815;DHT22;21030;53.912;15.214;2022-12-18T13:32:01;18.20;24.10
34815;DHT22;21030;53.912;15.214;2022-12-18T13:34:20;18.10;25.10
34815;DHT22;21030;53.912;15.214;2022-12-18T13:39:53;19.60;23.90
34815;DHT22;21030;53.912;15.214;2022-12-18T13:48:25;17.70;25.10
34815;DHT22;21030;53.912;15.214;2022-12-18T13:50:59;18.70;24.70
34815;DHT22;21030;53.912;15.214;2022-12-18T13:53:29;19.10;23.80
34815;DHT22;21030;53.912;15.214;2022-12-18T13:55:58;19.10;24.10
34815;DHT22;21030;53.912;15.214;2022-12-18T13:58:26;19.80;23.80
34815;DHT22;21030;53.912;15.214;2022-12-18T14:00:52;20.40;23.00
34815;DHT22;21030;53.912;15.214;2022-12-18T14:03:23;19.70;23.00
34815;DHT22;21030;53.912;15.214;2022-12-18T14:06:05;19.70;23.80
34815;DHT22;21030;53.912;15.214;2022-12-18T14:08:35;19.00;23.60
34815;DHT22;21030;53.912;15.214;2022-12-18T14:11:05;20.20;23.40
34815;DHT22;21030;53.912;15.214;2022-12-18T14:13:39;21.00;22.60
34815;DHT22;21030;53.912;15.214;2022-12-18T14:16:14;21.50;21.80
34815;DHT22;21030;53.912;15.214;2022-12-18T14:18:50;22.00;21.20
34815;DHT22;21030;53.912;15.214;2022-12-18T14:21:30;20.30;22.10
34815;DHT22;21030;53.912;15.214;2022-12-18T14:24:20;19.60;22.70
34815;DHT22;21030;53.912;15.214;2022-12-18T14:26:49;19.30;23.60
34815;DHT22;21030;53.912;15.214;2022-12-18T14:29:29;19.00;23.80
34815;DHT22;21030;53.912;15.214;2022-12-18T14:32:13;18.60;23.70
34815;DHT22;21030;53.912;15.214;2022-12-18T14:34:54;17.90;24.20
34815;DHT22;21030;53.912;15.214;2022-12-18T14:37:24;17.70;24.80
34815;DHT22;21030;53.912;15.214;2022-12-18T14:39:54;17.60;25.30
34815;DHT22;21030;53.912;15.214;2022-12-18T14:42:21;17.70;25.30
34815;DHT22;21030;53.912;15.214;2022-12-18T14:44:48;18.10;25.10
34815;DHT22;21030;53.912;15.214;2022-12-18T14:47:35;18.30;24.80
34815;DHT22;21030;53.912;15.214;2022-12-18T14:50:02;19.20;23.90
34815;DHT22;21030;53.912;15.214;2022-12-18T14:52:31;20.00;23.10
34815;DHT22;21030;53.912;15.214;2022-12-18T14:54:58;19.10;23.50
34815;DHT22;21030;53.912;15.214;2022-12-18T14:57:33;19.10;23.90
34815;DHT22;21030;53.912;15.214;2022-12-18T15:00:07;18.70;24.00
34815;DHT22;21030;53.912;15.214;2022-12-18T15:02:41;18.80;24.10
34815;DHT22;21030;53.912;15.214;2022-12-18T15:07:47;19.10;24.40
34815;DHT22;21030;53.912;15.214;2022-12-18T15:10:31;18.30;23.90
34815;DHT22;21030;53.912;15.214;2022-12-18T15:18:04;19.10;24.70
34815;DHT22;21030;53.912;15.214;2022-12-18T15:20:51;18.20;23.70
34815;DHT22;21030;53.912;15.214;2022-12-18T15:26:02;18.00;25.30
34815;DHT22;21030;53.912;15.214;2022-12-18T15:31:03;20.00;23.70
34815;DHT22;21030;53.912;15.214;2022-12-18T15:33:33;19.40;23.50
34815;DHT22;21030;53.912;15.214;2022-12-18T15:36:09;19.40;24.20
34815;DHT22;21030;53.912;15.214;2022-12-18T15:38:36;18.70;24.50
34815;DHT22;21030;53.912;15.214;2022-12-18T15:41:04;20.40;23.60
34815;DHT22;21030;53.912;15.214;2022-12-18T15:43:41;20.00;22.90
34815;DHT22;21030;53.912;15.214;2022-12-18T15:46:17;19.40;23.60
34815;DHT22;21030;53.912;15.214;2022-12-18T15:48:47;18.90;23.50
34815;DHT22;21030;53.912;15.214;2022-12-18T15:51:31;17.60;24.80
34815;DHT22;21030;53.912;15.214;2022-12-18T15:54:01;16.50;26.20
34815;DHT22;21030;53.912;15.214;2022-12-18T15:56:28;17.20;26.20
34815;DHT22;21030;53.912;15.214;2022-12-18T15:59:16;17.40;25.30
34815;DHT22;21030;53.912;15.214;2022-12-18T16:01:45;19.00;24.80
34815;DHT22;21030;53.912;15.214;2022-12-18T16:04:14;20.20;23.50
34815;DHT22;21030;53.912;15.214;2022-12-18T16:06:43;20.00;23.20
34815;DHT22;21030;53.912;15.214;2022-12-18T16:09:30;18.20;23.60
34815;DHT22;21030;53.912;15.214;2022-12-18T16:11:57;17.40;24.80
34815;DHT22;21030;53.912;15.214;2022-12-18T16:14:27;17.10;25.50
34815;DHT22;21030;53.912;15.214;2022-12-18T16:17:00;18.00;25.00
34815;DHT22;21030;53.912;15.214;2022-12-18T16:19:28;18.40;24.70
34815;DHT22;21030;53.912;15.214;2022-12-18T16:21:57;19.70;24.00
34815;DHT22;21030;53.912;15.214;2022-12-18T16:24:27;19.20;23.50
34815;DHT22;21030;53.912;15.214;2022-12-18T16:26:56;19.70;23.50
34815;DHT22;21030;53.912;15.214;2022-12-18T16:29:24;19.60;23.10
34815;DHT22;21030;53.912;15.214;2022-12-18T16:31:55;18.70;23.90
34815;DHT22;21030;53.912;15.214;2022-12-18T16:34:27;18.90;24.30
34815;DHT22;21030;53.912;15.214;2022-12-18T16:36:57;18.50;24.00
34815;DHT22;21030;53.912;15.214;2022-12-18T16:39:34;18.60;24.50
34815;DHT22;21030;53.912;15.214;2022-12-18T16:42:13;18.40;24.60
34815;DHT22;21030;53.912;15.214;2022-12-18T16:44:41;17.60;25.80
34815;DHT22;21030;53.912;15.214;2022-12-18T16:47:09;17.60;25.50
34815;DHT22;21030;53.912;15.214;2022-12-18T16:49:39;18.40;25.50
34815;DHT22;21030;53.912;15.214;2022-12-18T16:52:07;19.10;24.30
34815;DHT22;21030;53.912;15.214;2022-12-18T16:54:35;20.70;23.40
34815;DHT22;21030;53.912;15.214;2022-12-18T16:57:03;21.50;21.80
34815;DHT22;21030;53.912;15.214;2022-12-18T16:59:33;22.00;21.60
34815;DHT22;21030;53.912;15.214;2022-12-18T17:02:00;21.70;21.10
34815;DHT22;21030;53.912;15.214;2022-12-18T17:04:29;21.80;21.30
34815;DHT22;21030;53.912;15.214;2022-12-18T17:06:57;20.00;21.90
34815;DHT22;21030;53.912;15.214;2022-12-18T17:09:24;19.30;23.40
34815;DHT22;21030;53.912;15.214;2022-12-18T17:11:52;19.70;23.60
34815;DHT22;21030;53.912;15.214;2022-12-18T17:14:22;19.50;23.30
34815;DHT22;21030;53.912;15.214;2022-12-18T17:16:50;19.40;23.00
34815;DHT22;21030;53.912;15.214;2022-12-18T17:19:37;19.50;23.60
34815;DHT22;21030;53.912;15.214;2022-12-18T17:22:04;18.70;23.70
34815;DHT22;21030;53.912;15.214;2022-12-18T17:24:31;18.10;24.60